Impacts TAF Board
For situational awareness. Not to be used for flight planning purposes.
IDs:

KTIX - Titusville/Space Coa, FL, US

Issued at 1736 UTC 30 Jun 2022
Updated at 2323 UTC 30 Jun 2022
Potential Impact None Slight Moderate High
Time2247Z 01/00Z 01/01Z 01/02Z 01/03Z 01/04Z 01/05Z 01/06Z 01/07Z 01/08Z 01/09Z 01/10Z 01/11Z 01/12Z>>
Type OBS PRVL PRVL PRVL PRVL PRVL PRVL PRVL PRVL PRVL PRVL PRVL PRVL PRVL
VIS 5 >6 >6 >6 >6 >6 >6 >6 >6 >6 >6 >6 >6 >6
CIG 22 140 140 140 140 140 140 140 140 140 140 140 140 140
Cover BKN BKN BKN BKN BKN BKN BKN BKN BKN BKN BKN BKN BKN BKN
FltCat MVFR VFR VFR VFR VFR VFR VFR VFR VFR VFR VFR VFR VFR VFR
WX BR VCSH VCSH VCSH VCSH -- -- -- -- -- -- -- -- --
WDir 110 150 150 150 150 160 160 160 160 160 160 160 160 160
WSpd 6 3 3 3 3 4 4 4 4 4 4 4 4 4
WGst -- -- -- -- -- -- -- -- -- -- -- -- -- --
WSHgt -- -- -- -- -- -- -- -- -- -- -- -- -- --
WSDir -- -- -- -- -- -- -- -- -- -- -- -- -- --
WSSpd -- -- -- -- -- -- -- -- -- -- -- -- -- --
Raw TAF
KTIX 301736Z 3018/0118 09007KT P6SM VCTS SCT030CB BKN040 OVC120
  TEMPO 3018/3021 3SM TSRA BKN030CB
  FM010000 15003KT P6SM VCSH SCT080 BKN140
  FM010400 16004KT P6SM SCT080 BKN140
  FM011400 16006KT P6SM SCT035 SCT080 BKN200


Raw METAR
KTIX 302247Z 11006KT 5SM BR BKN022 28/24 A3009 RMK VCSH
KTIX 302155Z 14006KT 75SM BR SCT018 BKN100 28/25 A3009 RMK TS N MOV W
KTIX 302047Z 14006KT 7SM SCT035 BKN100 31/25 A3009 BR

METAR Board
Radar Display
Forecast Discussion
For situational awareness. Not to be used for flight planning purposes.